Nearby METAR Reports

 

KPBI - West Palm Beach, Florida, USA
Distance from station: NNE 9mi, 14km
Updated: Mon, 24-Sep-2018 2:53am EDT
Few Clouds
Few Clouds
 Wind from ENE
Wind: ENE 6 mph , 9 km/h
Temperature: 82°F , 28°C
Heat Index: 89°F , 32°C
Dew Point: 75°F , 24°C
Humidity: 79%
Barometer: 29.97 inHg , 1014.9 hPa
Clouds: Few Clouds
Visibility: 10 miles , 16 km
Cloud details: Few Clouds 2400 ft
Few Clouds 25000 ft
2018/09/24 06:53 KPBI 240653Z 07005KT 10SM FEW024 FEW250 28/24 A2997 RMK AO2 SLP148 T02780239
KBCT - Boca Raton, Florida, USA
Distance from station: SSE 13mi, 21km
Updated: Sun, 23-Sep-2018 10:47pm EDT
NOT Current
Partly cloudy
Partly cloudy
 Wind from E
Wind: E 7 mph , 11 km/h
Temperature: 82°F , 28°C
Heat Index: 87°F , 31°C
Dew Point: 73°F , 23°C
Humidity: 74%
Barometer: 29.99 inHg , 1015.6 hPa
Clouds: Partly cloudy
Visibility: 10 miles , 16 km
Cloud details: Partly cloudy 2200 ft
2018/09/24 02:47 KBCT 240247Z 09006KT 10SM SCT022 28/23 A2999
 
KPMP - Pompano Beach, Florida, USA
Distance from station: S 22mi, 36km
Updated: Mon, 24-Sep-2018 2:53am EDT
Clear
Clear
 Wind from ENE
Wind: ENE 5 mph , 7 km/h
Temperature: 82°F , 28°C
Heat Index: 86°F , 30°C
Dew Point: 72°F , 22°C
Humidity: 70%
Barometer: 29.96 inHg , 1014.6 hPa
Clouds: Clear
Visibility: 10 miles , 16 km
2018/09/24 06:53 KPMP 240653Z AUTO 06004KT 10SM CLR 28/22 A2996 RMK AO2 SLP147 T02830222
KFXE - Ft Lauderd/Exec, Florida, USA
Distance from station: S 25mi, 41km
Updated: Mon, 24-Sep-2018 2:53am EDT
Clear
Clear
 Wind from NE
Wind: NE 5 mph , 7 km/h
Temperature: 82°F , 28°C
Heat Index: 89°F , 32°C
Dew Point: 75°F , 24°C
Humidity: 79%
Barometer: 29.96 inHg , 1014.6 hPa
Clouds: Clear
Visibility: 10 miles , 16 km
2018/09/24 06:53 KFXE 240653Z 05004KT 10SM CLR 28/24 A2996 RMK AO2 SLP148 T02780244
 
KFLL - Ft Lauderd/Holly, Florida, USA
Distance from station: S 35mi, 56km
Updated: Mon, 24-Sep-2018 2:53am EDT
Mostly cloudy
Mostly cloudy
 Wind from ENE
Wind: ENE 5 mph , 7 km/h
Temperature: 82°F , 28°C
Heat Index: 89°F , 32°C
Dew Point: 75°F , 24°C
Humidity: 79%
Barometer: 29.95 inHg , 1014.2 hPa
Clouds: Mostly cloudy
Visibility: 10 miles , 16 km
Cloud details: Partly cloudy 2500 ft
Partly cloudy 3200 ft
Mostly cloudy 6000 ft
2018/09/24 06:53 KFLL 240653Z 07004KT 10SM SCT025 SCT032 BKN060 28/24 A2995 RMK AO2 SLP143 T02780244
KHWO - Hollywood, Florida, USA
Distance from station: S 39mi, 64km
Updated: Mon, 24-Sep-2018 3:09am EDT
Mostly cloudy
Mostly cloudy
 Wind from NNE
Wind: NNE 3 mph , 6 km/h
Temperature: 82°F , 28°C
Heat Index: 89°F , 32°C
Dew Point: 75°F , 24°C
Humidity: 79%
Barometer: 29.97 inHg , 1014.9 hPa
Clouds: Mostly cloudy
Visibility: 10 miles , 16 km
Cloud details: Few Clouds 2300 ft
Partly cloudy 2900 ft
Mostly cloudy 4800 ft
2018/09/24 07:09 KHWO 240709Z AUTO 02003KT 10SM FEW023 SCT029 BKN048 28/24 A2997 RMK AO2 RAB0656E08 P0000 T02780239
 
KSUA - Stuart/Witham, Florida, USA
Distance from station: N 43mi, 69km
Updated: Mon, 24-Sep-2018 3:35am EDT
Clear
Clear
 Wind from ENE
Wind: ENE 7 mph , 11 km/h
Temperature: 81°F , 27°C
Heat Index: 86°F , 30°C
Dew Point: 73°F , 23°C
Humidity: 79%
Barometer: 29.99 inHg , 1015.6 hPa
Clouds: Clear
Visibility: 10 miles , 16 km
2018/09/24 07:35 KSUA 240735Z AUTO 07006KT 10SM CLR 27/23 A2999 RMK AO2
KOPF - Miami/Opa Locka, Florida, USA
Distance from station: S 46mi, 73km
Updated: Mon, 24-Sep-2018 2:53am EDT
Clear
Clear
 Wind from calm
Wind: Calm
Temperature: 82°F , 28°C
Heat Index: 89°F , 32°C
Dew Point: 75°F , 24°C
Humidity: 79%
Barometer: 29.97 inHg , 1014.9 hPa
Clouds: Clear
Visibility: 10 miles , 16 km
2018/09/24 06:53 KOPF 240653Z AUTO 00000KT 10SM CLR 28/24 A2997 RMK AO2 SLP148 T02780244
 
KMIA - Miami, Florida, USA
Distance from station: S 54mi, 86km
Updated: Mon, 24-Sep-2018 2:53am EDT
Partly cloudy
Partly cloudy
 Wind from NNE
Wind: NNE 5 mph , 7 km/h
Temperature: 82°F , 28°C
Heat Index: 89°F , 32°C
Dew Point: 75°F , 24°C
Humidity: 79%
Barometer: 29.96 inHg , 1014.6 hPa
Clouds: Partly cloudy
Visibility: 10 miles , 16 km
Cloud details: Few Clouds 2300 ft
Few Clouds 7000 ft
Partly cloudy 25000 ft
2018/09/24 06:53 KMIA 240653Z 03004KT 10SM FEW023TCU FEW070 SCT250 28/24 A2996 RMK AO2 SLP146 TCU E T02780244 $
KOBE - Okeechobee Cty, Florida, USA
Distance from station: NW 64mi, 104km
Updated: Mon, 24-Sep-2018 3:35am EDT
Partly cloudy
Partly cloudy
 Wind from calm
Wind: Calm
Temperature: 72°F , 22°C
Dew Point: 72°F , 22°C
Humidity: 100%
Barometer: 29.98 inHg , 1015.2 hPa
Clouds: Partly cloudy
Visibility: 10 miles , 16 km
Cloud details: Partly cloudy 2200 ft
2018/09/24 07:35 KOBE 240735Z AUTO 00000KT 10SM SCT022 22/22 A2998 RMK AO2
 
KFPR - Fort Pierce, Florida, USA
Distance from station: NNW 66mi, 106km
Updated: Mon, 24-Sep-2018 2:53am EDT
Clear
Clear
 Wind from calm
Wind: Calm
Temperature: 73°F , 23°C
Dew Point: 73°F , 23°C
Humidity: 100%
Barometer: 29.98 inHg , 1015.2 hPa
Clouds: Clear
Visibility: 10 miles , 16 km
2018/09/24 06:53 KFPR 240653Z AUTO 00000KT 10SM CLR 23/23 A2998 RMK AO2 SLP151 T02330233
KTMB - Miami/Tamiami, Florida, USA
Distance from station: SSW 66mi, 106km
Updated: Mon, 24-Sep-2018 2:53am EDT
Clear
Clear
 Wind from N
Wind: N 3 mph , 6 km/h
Temperature: 79°F , 26°C
Dew Point: 73°F , 23°C
Humidity: 84%
Barometer: 29.96 inHg , 1014.6 hPa
Clouds: Clear
Visibility: 10 miles , 16 km
2018/09/24 06:53 KTMB 240653Z AUTO 01003KT 10SM CLR 26/23 A2996 RMK AO2 SLP144 T02610233
 
KVRB - Vero Beach, Florida, USA
Distance from station: NNW 76mi, 123km
Updated: Mon, 24-Sep-2018 2:53am EDT
Clear
Clear
 Wind from N
Wind: N 3 mph , 6 km/h
Temperature: 72°F , 22°C
Dew Point: 72°F , 22°C
Humidity: 100%
Barometer: 29.99 inHg , 1015.6 hPa
Clouds: Clear
Visibility: 10 miles , 16 km
2018/09/24 06:53 KVRB 240653Z AUTO 36003KT 10SM CLR 22/22 A2999 RMK AO2 SLP152 T02220222
KHST - Homestead Afb, Florida, USA
Distance from station: S 77mi, 124km
Updated: Mon, 24-Sep-2018 3:37am EDT
Mostly cloudy
Mostly cloudy
 Wind from NW
Wind: NW 3 mph , 6 km/h
Temperature: 81°F , 27°C
Heat Index: 88°F , 31°C
Dew Point: 77°F , 25°C
Humidity: 89%
Barometer: 29.95 inHg , 1014.2 hPa
Clouds: Mostly cloudy
Visibility: 10 miles , 16 km
Cloud details: Few Clouds 1300 ft
Partly cloudy 2400 ft
Mostly cloudy 4500 ft
Mostly cloudy 6500 ft
Mostly cloudy 8500 ft
2018/09/24 07:37 KHST 240737Z AUTO 31003KT 10SM FEW013 SCT024 BKN045 BKN065 BKN085 27/25 A2995 RMK AO2 RAB18E32 SLP145 FZRANO VISNO RWY24 $
 
KIMM - Immokalee, Florida, USA
Distance from station: W 77mi, 124km
Updated: Mon, 24-Sep-2018 3:35am EDT

 Wind from calm
Wind: Calm
Temperature: 75°F , 24°C
Dew Point: 75°F , 24°C
Humidity: 100%
Barometer: 29.97 inHg , 1014.9 hPa
Visibility: 10 miles , 16 km
2018/09/24 07:35 KIMM 240735Z AUTO 00000KT 10SM 24/24 A2997 RMK A01
MYGF - Freeport Intl A, Bahamas
Distance from station: E 90mi, 145km
Updated: Sun, 23-Sep-2018 6:00pm EDT
NOT Current
Partly cloudy
Partly cloudy
 Wind from calm
Wind: Calm
Temperature: 82°F , 28°C
Heat Index: 91°F , 33°C
Dew Point: 79°F , 26°C
Humidity: 89%
Barometer: 29.94 inHg , 1013.9 hPa
Clouds: Partly cloudy
Visibility: 6 miles , 10 km
Cloud details: Few Clouds 2000 ft
Partly cloudy 25000 ft
2018/09/23 22:00 MYGF 232200Z 00000KT 9999 FEW020 SCT250 28/26 A2994
 
KSEF - Sebring, Florida, USA
Distance from station: NW 95mi, 153km
Updated: Mon, 24-Sep-2018 3:35am EDT
Clear
Clear
 Wind from calm
Wind: Calm
Temperature: 75°F , 24°C
Dew Point: 72°F , 22°C
Humidity: 89%
Barometer: 29.99 inHg , 1015.6 hPa
Clouds: Clear
Visibility: 10 miles , 16 km
2018/09/24 07:35 KSEF 240735Z AUTO 00000KT 10SM CLR 24/22 A2999 RMK AO2 T02410224
KRSW - Fort Myers, Florida, USA
Distance from station: W 98mi, 158km
Updated: Mon, 24-Sep-2018 2:53am EDT
Clear
Clear
 Wind from ESE
Wind: ESE 5 mph , 7 km/h
Temperature: 77°F , 25°C
Dew Point: 75°F , 24°C
Humidity: 94%
Barometer: 29.97 inHg , 1014.9 hPa
Clouds: Clear
Visibility: 10 miles , 16 km
2018/09/24 06:53 KRSW 240653Z AUTO 11004KT 10SM CLR 25/24 A2997 RMK AO2 SLP145 T02500244